Time;durP1;ratioP1;P1;durP2;ratioP2;P2;SDS_P1;SDS_P2;PMS_P1;PMS_P2;Temp;Humidity;BMP_temperature;BMP_pressure;BME280_temperature;BME280_humidity;BME280_pressure;Samples;Min_cycle;Max_cycle;Signal;HPM_P1;HPM_P2
2022/07/19 00:00:10;;;;;;;0.80;0.80;;;14.40;1.40;;;16.10;100.00;95958.23;647938;216;31538;-73
2022/07/19 00:02:53;;;;;;;1.62;1.15;;;14.40;1.40;;;16.07;100.00;95959.67;645906;212;31545;-73
2022/07/19 00:05:34;;;;;;;1.67;1.20;;;14.40;1.40;;;16.00;100.00;95957.27;645580;216;31931;-74
2022/07/19 00:08:16;;;;;;;1.40;1.10;;;14.30;1.40;;;15.98;100.00;95958.42;647065;212;31642;-73
2022/07/19 00:10:58;;;;;;;3.60;1.30;;;14.30;1.40;;;15.99;100.00;95955.81;647947;216;31606;-73
2022/07/19 00:13:40;;;;;;;1.98;1.45;;;14.40;1.40;;;15.94;100.00;95955.27;645476;212;32070;-73
2022/07/19 00:16:24;;;;;;;1.25;1.10;;;14.30;1.40;;;15.86;100.00;95956.84;647431;212;31624;-74
2022/07/19 00:19:06;;;;;;;1.00;0.80;;;14.20;1.40;;;15.78;100.00;95957.81;646899;216;31535;-73
2022/07/19 00:21:48;;;;;;;0.80;0.80;;;14.10;1.40;;;15.78;100.00;95953.55;646712;216;43521;-73
2022/07/19 00:24:29;;;;;;;1.48;1.08;;;14.30;1.40;;;15.78;100.00;95957.31;618850;225;31834;-73
2022/07/19 00:27:11;;;;;;;2.50;1.30;;;14.30;1.40;;;15.78;100.00;95951.36;646903;216;31577;-74
2022/07/19 00:29:53;;;;;;;1.02;1.00;;;14.20;1.40;;;15.78;100.00;95950.98;646898;212;31514;-72
2022/07/19 00:32:35;;;;;;;1.45;1.27;;;14.30;1.40;;;15.75;100.00;95951.56;646582;216;31828;-72
2022/07/19 00:35:52;;;;;;;1.90;1.50;;;14.20;1.40;;;15.65;100.00;95952.04;646085;216;42227;-73
2022/07/19 00:38:34;;;;;;;1.60;1.20;;;14.10;1.40;;;15.64;100.00;95952.02;646955;213;31517;-73
2022/07/19 00:41:15;;;;;;;1.00;1.00;;;14.10;1.40;;;15.64;100.00;95950.42;647639;216;31502;-74
2022/07/19 00:43:57;;;;;;;1.80;1.17;;;14.10;1.40;;;15.77;100.00;95951.88;618655;226;32014;-73
2022/07/19 00:46:39;;;;;;;1.40;1.30;;;14.10;1.40;;;15.70;100.00;95950.27;647061;216;31517;-72
2022/07/19 00:49:20;;;;;;;1.10;1.10;;;14.10;1.40;;;15.77;100.00;95950.57;646923;216;31524;-75
2022/07/19 00:54:40;;;;;;;1.42;1.30;;;14.00;1.40;;;15.38;100.00;95951.62;636830;216;31747;-73
2022/07/19 00:57:21;;;;;;;1.25;1.15;;;13.70;1.40;;;15.23;100.00;95947.05;646809;216;31563;-74
2022/07/19 01:00:03;;;;;;;2.10;1.65;;;13.60;1.40;;;15.13;100.00;95944.77;646418;212;31575;-73
2022/07/19 01:02:52;;;;;;;1.02;0.93;;;13.50;1.40;;;15.01;100.00;95945.63;648058;216;31614;-72
2022/07/19 01:05:34;;;;;;;1.20;1.10;;;13.40;1.40;;;15.00;100.00;95948.80;646994;212;31545;-73
2022/07/19 01:08:16;;;;;;;1.00;0.90;;;13.30;1.40;;;14.91;100.00;95949.50;646566;212;31527;-73
2022/07/19 01:10:57;;;;;;;1.90;1.10;;;13.30;1.40;;;14.84;100.00;95950.29;647034;216;32201;-73
2022/07/19 01:13:39;;;;;;;1.20;1.10;;;13.20;1.40;;;14.78;100.00;95948.91;645495;212;31498;-73
2022/07/19 01:16:21;;;;;;;1.60;1.20;;;13.20;1.40;;;14.73;100.00;95951.45;646323;212;31533;-73
2022/07/19 01:19:02;;;;;;;2.80;1.58;;;13.10;1.40;;;14.67;100.00;95944.66;647086;212;31560;-73
2022/07/19 01:21:44;;;;;;;1.60;1.30;;;13.10;1.40;;;14.64;100.00;95951.30;619018;226;32363;-73
2022/07/19 01:25:02;;;;;;;1.20;1.00;;;13.10;1.40;;;14.61;100.00;95949.75;647438;212;31580;-73
2022/07/19 01:27:44;;;;;;;0.90;0.90;;;13.10;1.40;;;14.65;100.00;95949.08;646543;216;31539;-73
2022/07/19 01:30:26;;;;;;;1.45;1.35;;;13.00;1.40;;;14.65;100.00;95947.02;646518;216;32501;-73
2022/07/19 01:35:51;;;;;;;1.40;1.30;;;12.90;1.40;;;14.51;100.00;95944.43;646840;212;32169;-72
2022/07/19 01:38:33;;;;;;;2.08;0.95;;;12.90;1.40;;;14.48;100.00;95947.88;646540;216;31844;-73
2022/07/19 01:41:14;;;;;;;1.17;1.08;;;12.90;1.40;;;14.38;100.00;95946.59;619678;226;31911;-73
2022/07/19 01:43:56;;;;;;;1.50;1.40;;;12.80;1.40;;;14.32;100.00;95944.36;647294;212;42166;-73
2022/07/19 01:46:38;;;;;;;1.37;1.27;;;12.80;1.40;;;14.37;100.00;95944.39;646756;216;31580;-73
2022/07/19 01:49:19;;;;;;;1.60;1.50;;;12.90;1.40;;;14.51;100.00;95940.55;646975;212;42483;-73
2022/07/19 01:52:01;;;;;;;1.85;1.60;;;13.30;1.40;;;14.68;100.00;95939.48;646574;216;31561;-73
2022/07/19 01:54:46;;;;;;;3.42;2.10;;;13.60;1.40;;;14.75;100.00;95941.46;635129;212;42340;-75
2022/07/19 01:57:28;;;;;;;1.27;1.10;;;13.40;1.40;;;14.74;100.00;95936.34;647486;212;42797;-74
2022/07/19 02:00:10;;;;;;;1.23;1.12;;;13.20;1.40;;;14.61;100.00;95932.34;646852;216;32063;-73
2022/07/19 02:02:52;;;;;;;1.00;0.90;;;13.00;1.40;;;14.56;100.00;95933.47;646273;216;31578;-74
2022/07/19 02:05:34;;;;;;;1.95;1.30;;;12.90;1.40;;;14.63;100.00;95929.83;646661;216;31512;-73
2022/07/19 02:08:16;;;;;;;5.70;1.30;;;13.00;1.40;;;14.68;100.00;95931.25;648225;216;42151;-73
2022/07/19 02:13:03;;;;;;;1.08;0.98;;;13.00;1.40;;;14.65;100.00;95925.00;646398;212;31551;-74
2022/07/19 02:15:45;;;;;;;1.70;1.40;;;13.00;1.40;;;14.37;100.00;95921.91;647145;216;42198;-72
2022/07/19 02:18:27;;;;;;;1.10;0.80;;;12.80;1.40;;;14.20;100.00;95918.55;646573;216;31510;-72
2022/07/19 02:21:09;;;;;;;1.40;1.30;;;12.60;1.40;;;14.15;100.00;95918.81;646624;216;42265;-73
2022/07/19 02:23:51;;;;;;;0.73;0.73;;;12.50;1.40;;;14.07;100.00;95912.99;645686;216;42128;-72
2022/07/19 02:26:32;;;;;;;1.62;1.10;;;12.40;1.40;;;13.93;100.00;95911.50;645743;212;42271;-73
2022/07/19 02:29:14;;;;;;;1.00;0.95;;;12.30;1.40;;;13.85;100.00;95911.19;648182;212;42255;-73
2022/07/19 02:31:56;;;;;;;2.00;1.40;;;12.20;1.40;;;13.81;100.00;95912.16;647156;212;40429;-73
2022/07/19 02:35:50;;;;;;;1.58;1.35;;;12.20;1.40;;;13.76;100.00;95910.09;618709;226;31904;-72
2022/07/19 02:38:32;;;;;;;1.75;0.90;;;12.10;1.40;;;13.71;100.00;95910.59;646146;212;40461;-72
2022/07/19 02:41:14;;;;;;;0.90;0.90;;;12.30;1.40;;;13.52;100.00;95910.25;618839;222;31911;-73
2022/07/19 02:43:59;;;;;;;3.87;1.12;;;12.10;1.40;;;13.67;100.00;95911.70;646338;212;36270;-72
2022/07/19 02:46:40;;;;;;;1.00;0.90;;;12.10;1.40;;;13.61;100.00;95910.92;647507;216;31639;-72
2022/07/19 02:49:22;;;;;;;1.58;1.20;;;12.30;1.40;;;13.63;100.00;95914.84;647350;216;34534;-73
2022/07/19 02:52:04;;;;;;;1.40;1.20;;;12.30;1.40;;;13.67;100.00;95910.23;646188;212;42166;-73
2022/07/19 02:54:45;;;;;;;1.27;1.17;;;12.50;1.40;;;13.71;100.00;95909.14;636392;216;31819;-72
2022/07/19 02:57:33;;;;;;;1.92;1.10;;;12.50;1.40;;;13.66;100.00;95905.17;646362;216;31578;-76
2022/07/19 03:00:21;;;;;;;1.40;1.30;;;12.20;1.40;;;13.68;100.00;95903.06;646267;216;31538;-73
2022/07/19 03:05:50;;;;;;;2.20;1.00;;;12.20;1.40;;;13.65;100.00;95901.50;646545;212;42166;-73
2022/07/19 03:08:31;;;;;;;1.40;1.30;;;12.10;1.40;;;13.63;100.00;95902.73;647210;216;35786;-73
2022/07/19 03:11:13;;;;;;;1.48;1.37;;;12.20;1.40;;;13.61;100.00;95900.88;646229;212;42210;-73
2022/07/19 03:13:56;;;;;;;1.40;1.20;;;12.10;1.40;;;13.59;100.00;95897.09;645891;216;32163;-72
2022/07/19 03:16:37;;;;;;;1.30;1.20;;;12.00;1.40;;;13.53;100.00;95901.23;647104;216;31691;-73
2022/07/19 03:19:21;;;;;;;1.25;1.15;;;12.00;1.40;;;13.50;100.00;95900.62;646474;216;32666;-72
2022/07/19 03:22:03;;;;;;;1.30;1.10;;;12.00;1.40;;;13.56;100.00;95902.53;645824;212;42236;-72
2022/07/19 03:24:45;;;;;;;1.12;0.90;;;12.10;1.40;;;13.37;100.00;95902.84;646759;216;36903;-72
2022/07/19 03:27:27;;;;;;;1.60;1.05;;;12.10;1.40;;;13.31;100.00;95899.16;646503;212;32137;-72
2022/07/19 03:30:11;;;;;;;1.30;1.20;;;12.00;1.40;;;13.33;100.00;95900.48;620584;222;31874;-73
2022/07/19 03:32:53;;;;;;;1.50;1.40;;;12.10;1.40;;;13.33;100.00;95898.01;646872;212;33563;-73
2022/07/19 03:35:51;;;;;;;3.95;1.08;;;12.10;1.40;;;13.27;100.00;95899.42;646631;212;31518;-72
2022/07/19 03:38:35;;;;;;;1.20;1.10;;;12.00;1.40;;;13.25;100.00;95898.50;645969;212;33572;-73
2022/07/19 03:41:19;;;;;;;1.65;1.00;;;11.90;1.40;;;13.31;100.00;95899.70;646386;216;42514;-74
2022/07/19 03:44:03;;;;;;;1.30;1.15;;;12.00;1.40;;;13.37;100.00;95902.81;645804;216;32372;-72
2022/07/19 03:46:47;;;;;;;1.12;1.02;;;12.00;1.40;;;13.44;100.00;95897.18;650701;216;31572;-72
2022/07/19 03:49:29;;;;;;;1.40;1.20;;;12.00;1.40;;;13.50;100.00;95898.22;650499;212;31734;-73
2022/07/19 03:52:11;;;;;;;1.23;1.12;;;12.20;1.40;;;13.60;100.00;95899.62;643772;216;31728;-73
2022/07/19 03:54:53;;;;;;;2.10;1.10;;;12.20;1.40;;;13.57;100.00;95898.52;637155;216;31702;-73
2022/07/19 03:57:34;;;;;;;1.70;1.00;;;12.20;1.40;;;13.55;100.00;95899.23;647593;212;31955;-72
2022/07/19 04:00:16;;;;;;;1.17;0.98;;;12.10;1.40;;;13.50;100.00;95899.47;652051;216;31549;-74
2022/07/19 04:02:58;;;;;;;1.85;1.40;;;12.00;1.40;;;13.38;100.00;95906.02;647431;212;31486;-72
2022/07/19 04:05:40;;;;;;;1.30;1.17;;;11.90;1.40;;;13.40;100.00;95907.03;646331;212;31906;-72
2022/07/19 04:08:21;;;;;;;0.90;0.80;;;11.80;1.40;;;13.35;100.00;95902.22;647547;213;31520;-73
2022/07/19 04:11:03;;;;;;;2.55;0.85;;;11.80;1.40;;;13.36;100.00;95899.63;642941;216;32417;-73
2022/07/19 04:13:45;;;;;;;1.20;1.10;;;11.80;1.40;;;13.46;100.00;95894.13;650697;216;31566;-72
2022/07/19 04:16:32;;;;;;;1.90;1.03;;;11.90;1.40;;;13.62;100.00;95893.88;621793;222;31923;-74
2022/07/19 04:19:53;;;;;;;1.48;1.05;;;12.10;1.40;;;13.68;100.00;95893.53;649744;212;32124;-73
2022/07/19 04:22:34;;;;;;;1.40;0.85;;;12.20;1.40;;;13.68;100.00;95895.11;645252;212;31869;-72
2022/07/19 04:25:22;;;;;;;1.27;1.17;;;12.20;1.40;;;13.81;100.00;95897.83;649505;216;31574;-74
2022/07/19 04:28:07;;;;;;;3.40;1.23;;;12.20;1.40;;;13.66;100.00;95892.55;645189;216;31524;-72
2022/07/19 04:30:47;;;;;;;2.28;1.40;;;12.20;1.40;;;13.76;100.00;95893.09;647615;212;31599;-72
2022/07/19 04:35:53;;;;;;;1.98;1.42;;;12.20;1.40;;;13.76;100.00;95889.67;646901;212;31591;-73
2022/07/19 04:38:32;;;;;;;1.50;1.37;;;12.20;1.40;;;13.94;100.00;95893.27;645758;216;31561;-72
2022/07/19 04:41:14;;;;;;;1.23;1.13;;;12.40;1.40;;;13.95;100.00;95894.69;650747;216;34506;-74
2022/07/19 04:43:56;;;;;;;3.53;1.50;;;12.60;1.40;;;13.71;100.00;95892.19;652984;216;32427;-72
2022/07/19 04:46:38;;;;;;;1.00;0.90;;;12.60;1.40;;;13.71;100.00;95897.62;645734;216;42454;-73
2022/07/19 04:49:20;;;;;;;2.50;1.48;;;12.50;1.40;;;13.83;100.00;95896.84;648719;216;31519;-73
2022/07/19 04:52:02;;;;;;;1.95;1.45;;;12.60;1.40;;;14.04;100.00;95893.45;645737;216;35845;-73
2022/07/19 04:54:44;;;;;;;1.87;1.40;;;12.90;1.40;;;14.29;100.00;95894.58;635658;216;42502;-72
2022/07/19 04:57:28;;;;;;;2.23;2.00;;;13.00;1.40;;;14.41;100.00;95897.80;649831;216;31626;-74
2022/07/19 05:00:11;;;;;;;1.87;1.20;;;13.10;1.40;;;14.52;100.00;95890.70;648122;212;32276;-73
2022/07/19 05:02:54;;;;;;;1.62;1.35;;;13.20;1.40;;;14.69;100.00;95892.00;647762;216;31620;-72
2022/07/19 05:05:36;;;;;;;1.55;1.25;;;13.30;1.40;;;14.81;100.00;95891.09;649481;212;31925;-73
2022/07/19 05:08:18;;;;;;;2.25;1.52;;;13.40;1.40;;;15.06;100.00;95890.39;617372;226;32034;-74
2022/07/19 05:11:02;;;;;;;1.40;1.25;;;13.70;1.40;;;15.22;100.00;95894.31;646181;212;42721;-72
2022/07/19 05:13:44;;;;;;;2.42;1.40;;;13.80;1.40;;;15.35;100.00;95901.63;647694;216;31674;-72
2022/07/19 05:16:26;;;;;;;1.70;1.52;;;14.00;1.40;;;15.67;100.00;95895.42;646014;212;42695;-73
2022/07/19 05:19:07;;;;;;;1.70;1.52;;;14.20;1.40;;;15.71;100.00;95893.48;621110;222;31833;-72
2022/07/19 05:21:50;;;;;;;10.70;1.50;;;14.30;1.40;;;15.82;100.00;95892.31;649151;212;31484;-72
2022/07/19 05:24:31;;;;;;;3.40;1.83;;;14.40;1.40;;;15.91;100.00;95888.31;649921;216;32047;-72
2022/07/19 05:27:13;;;;;;;2.95;1.48;;;14.40;1.40;;;16.05;100.00;95885.05;645575;216;33992;-73
2022/07/19 05:29:54;;;;;;;1.50;1.40;;;14.60;1.40;;;16.23;100.00;95884.70;646706;212;31643;-72
2022/07/19 05:32:36;;;;;;;7.80;1.95;;;14.80;1.40;;;16.35;100.00;95881.24;648776;216;31431;-72
2022/07/19 05:35:51;;;;;;;2.42;1.75;;;14.90;1.40;;;16.58;100.00;95879.23;648316;216;31597;-73
2022/07/19 05:38:34;;;;;;;2.12;1.60;;;15.20;1.40;;;16.78;100.00;95883.47;647912;216;31594;-72
2022/07/19 05:41:16;;;;;;;2.33;1.90;;;15.50;1.40;;;17.05;100.00;95881.12;647517;212;31589;-73
2022/07/19 05:44:45;;;;;;;3.70;2.10;;;15.80;1.40;;;17.33;100.00;95884.42;652122;212;31588;-72
2022/07/19 05:47:27;;;;;;;2.28;1.80;;;16.10;1.40;;;17.54;100.00;95882.08;647670;216;31688;-72
2022/07/19 05:50:09;;;;;;;2.80;2.20;;;16.30;1.40;;;17.70;100.00;95885.77;643739;216;42165;-73
2022/07/19 05:52:51;;;;;;;2.70;1.90;;;16.40;1.40;;;17.86;100.00;95878.89;648312;216;31654;-72
2022/07/19 05:55:32;;;;;;;1.67;1.50;;;16.60;1.40;;;18.04;100.00;95880.83;647568;216;31643;-80
2022/07/19 05:58:17;;;;;;;1.70;1.40;;;16.80;1.40;;;18.51;100.00;95878.66;646196;216;31593;-74
2022/07/19 06:03:49;;;;;;;4.62;1.73;;;17.90;1.40;;;18.92;100.00;95884.98;646979;216;31595;-75
2022/07/19 06:06:31;;;;;;;1.30;1.20;;;17.80;1.40;;;19.10;100.00;95881.86;646499;212;31833;-74
2022/07/19 06:09:16;;;;;;;1.80;1.70;;;18.00;1.40;;;19.57;100.00;95883.18;646282;212;31748;-75
2022/07/19 06:11:57;;;;;;;2.00;1.50;;;18.70;1.40;;;19.76;100.00;95882.20;619976;225;31850;-76
2022/07/19 06:14:39;;;;;;;1.60;1.30;;;18.90;1.40;;;19.88;100.00;95876.95;646216;216;31535;-74
2022/07/19 06:19:55;;;;;;;1.70;1.60;;;19.00;1.40;;;20.44;100.00;95875.24;620564;225;31851;-74
2022/07/19 06:22:38;;;;;;;2.10;1.90;;;19.50;1.40;;;20.69;100.00;95870.70;648404;216;31518;-75
2022/07/19 06:25:20;;;;;;;1.67;1.40;;;19.60;1.40;;;21.24;93.70;95864.38;645520;216;31614;-74
2022/07/19 06:28:01;;;;;;;1.80;1.70;;;20.30;1.40;;;21.38;93.46;95866.58;647415;212;31536;-74
2022/07/19 06:30:43;;;;;;;3.55;1.40;;;20.40;1.40;;;21.39;95.31;95865.23;647104;216;31571;-75
2022/07/19 06:35:51;;;;;;;1.70;1.30;;;20.50;1.40;;;22.08;88.11;95862.69;646404;212;32113;-74
2022/07/19 06:38:33;;;;;;;2.05;1.95;;;21.10;1.40;;;22.37;86.65;95862.83;645592;212;31661;-74
2022/07/19 06:41:15;;;;;;;4.60;1.37;;;21.40;1.40;;;22.39;86.56;95860.53;648340;212;42520;-74
2022/07/19 06:43:56;;;;;;;2.22;1.25;;;21.30;1.40;;;22.44;87.49;95860.08;644734;212;42237;-74
2022/07/19 06:46:38;;;;;;;1.60;1.17;;;21.30;1.40;;;22.70;83.78;95859.55;620490;225;31823;-74
2022/07/19 06:49:20;;;;;;;1.20;1.10;;;21.60;1.40;;;22.84;83.00;95860.86;646646;212;42123;-74
2022/07/19 06:52:04;;;;;;;5.30;1.20;;;21.90;1.40;;;23.38;76.51;95861.00;649194;216;32040;-74
2022/07/19 06:54:45;;;;;;;1.70;1.33;;;22.40;1.40;;;23.49;75.00;95851.30;637701;216;31683;-75
2022/07/19 06:57:27;;;;;;;1.42;1.33;;;22.50;1.40;;;23.52;78.76;95851.86;646339;216;31653;-74
2022/07/19 07:00:13;;;;;;;4.90;1.40;;;22.40;1.40;;;23.82;75.43;95853.63;645684;213;31539;-76
2022/07/19 07:05:29;;;;;;;3.65;1.50;;;22.90;1.40;;;24.14;71.65;95850.67;619481;222;32247;-75
2022/07/19 07:08:16;;;;;;;1.77;1.35;;;23.20;1.40;;;24.24;73.89;95856.33;646209;212;32022;-75
2022/07/19 07:10:59;;;;;;;2.70;1.40;;;23.20;1.40;;;23.52;82.32;95858.24;647854;212;31594;-80
2022/07/19 07:13:47;;;;;;;1.52;1.42;;;20.10;1.40;;;22.65;83.64;95861.26;647068;216;32233;-76
2022/07/19 07:16:29;;;;;;;2.30;1.03;;;19.30;1.40;;;22.18;88.76;95859.53;644893;216;31594;-76
2022/07/19 07:19:10;;;;;;;1.30;1.20;;;18.50;1.40;;;21.79;91.55;95856.83;619307;222;31851;-75
2022/07/19 07:21:52;;;;;;;1.80;1.45;;;17.20;1.40;;;21.59;94.78;95862.61;647269;212;31554;-76
2022/07/19 07:24:41;;;;;;;1.83;1.40;;;17.40;1.40;;;21.92;92.99;95860.41;648577;216;31562;-81
2022/07/19 07:27:28;;;;;;;1.52;1.42;;;17.80;1.40;;;22.55;86.03;95858.03;646703;216;42164;-75
2022/07/19 07:30:11;;;;;;;1.30;0.95;;;18.20;1.40;;;22.82;82.95;95854.53;645748;216;31504;-75
2022/07/19 07:32:53;;;;;;;3.30;1.30;;;18.70;1.40;;;22.93;83.70;95850.51;646121;212;42868;-75
2022/07/19 07:35:51;;;;;;;1.40;1.25;;;19.30;1.40;;;23.48;77.03;95851.94;646223;216;31599;-76
2022/07/19 07:38:33;;;;;;;1.35;1.25;;;19.70;1.40;;;23.36;78.58;95852.59;647474;216;42008;-75
2022/07/19 07:41:15;;;;;;;1.12;1.02;;;20.00;1.40;;;24.14;76.38;95851.38;646871;212;42191;-75
2022/07/19 07:43:56;;;;;;;2.50;1.40;;;20.10;1.40;;;24.41;74.90;95848.77;646448;216;42148;-75
2022/07/19 07:47:00;;;;;;;3.37;1.30;;;20.20;1.40;;;24.79;70.66;95849.86;641316;216;32362;-75
2022/07/19 07:49:41;;;;;;;1.45;1.33;;;20.60;1.40;;;25.21;68.21;95841.22;646262;216;31595;-75
2022/07/19 07:52:23;;;;;;;2.10;1.37;;;20.90;1.40;;;25.61;64.83;95838.34;645222;216;31603;-75
2022/07/19 07:55:05;;;;;;;1.27;1.17;;;23.30;1.40;;;25.75;66.02;95834.66;632152;217;31773;-75
2022/07/19 07:57:48;;;;;;;1.20;1.10;;;24.60;1.40;;;25.88;65.15;95824.86;646397;216;31715;-75
2022/07/19 08:00:29;;;;;;;3.65;1.20;;;25.00;1.40;;;26.20;61.93;95825.78;646868;216;31631;-75
2022/07/19 08:03:11;;;;;;;1.30;1.20;;;25.30;1.40;;;26.25;60.28;95827.73;645632;212;31508;-75
2022/07/19 08:05:52;;;;;;;2.75;1.20;;;25.40;1.40;;;26.39;59.26;95820.11;647498;216;33532;-75
2022/07/19 08:08:34;;;;;;;1.60;1.50;;;25.50;1.40;;;26.55;59.20;95827.38;646709;215;31598;-75
2022/07/19 08:11:15;;;;;;;1.65;0.90;;;25.70;1.40;;;26.80;59.28;95825.42;647502;216;42136;-75
2022/07/19 08:13:57;;;;;;;2.22;1.17;;;25.90;1.40;;;26.88;58.64;95821.34;647442;216;31476;-75
2022/07/19 08:16:39;;;;;;;3.40;1.10;;;25.90;1.40;;;27.29;56.74;95819.80;641358;215;31617;-75
2022/07/19 08:19:21;;;;;;;2.40;1.50;;;26.40;1.40;;;27.53;55.45;95818.09;619143;225;42500;-75
2022/07/19 08:22:05;;;;;;;2.15;1.20;;;26.60;1.40;;;27.72;56.27;95819.98;646630;212;31586;-75
2022/07/19 08:24:47;;;;;;;1.23;1.12;;;26.80;1.40;;;27.80;53.94;95816.16;645974;212;32032;-75
2022/07/19 08:27:29;;;;;;;1.55;1.15;;;26.80;1.40;;;27.98;53.03;95816.77;645366;216;31610;-75
2022/07/19 08:30:11;;;;;;;1.20;1.10;;;27.00;1.40;;;28.16;52.11;95818.72;646687;216;32029;-75
2022/07/19 08:32:55;;;;;;;1.87;1.17;;;27.10;1.40;;;28.17;52.65;95813.02;646617;212;31573;-75
2022/07/19 08:35:51;;;;;;;2.10;1.35;;;27.20;1.40;;;28.49;51.69;95816.05;617959;222;34922;-75
2022/07/19 08:38:33;;;;;;;1.20;1.10;;;27.60;1.40;;;28.59;48.34;95806.23;645476;216;31783;-75
2022/07/19 08:41:15;;;;;;;0.85;0.80;;;27.60;1.40;;;28.18;48.19;95810.69;647632;212;31549;-75
2022/07/19 08:43:59;;;;;;;1.08;0.98;;;27.10;1.40;;;28.35;48.88;95804.06;647087;212;32024;-76
2022/07/19 08:46:41;;;;;;;1.40;1.10;;;27.30;1.40;;;28.61;48.13;95801.02;645596;216;32098;-76
2022/07/19 08:49:23;;;;;;;1.00;0.90;;;27.60;1.40;;;28.78;48.73;95800.56;618127;225;31874;-75
2022/07/19 08:52:05;;;;;;;1.10;1.00;;;27.70;1.40;;;29.03;50.00;95800.94;646568;216;31735;-75
2022/07/19 08:54:47;;;;;;;1.40;1.30;;;27.90;1.40;;;29.44;50.68;95789.64;646327;216;31623;-75
2022/07/19 09:00:18;;;;;;;1.20;1.10;;;28.80;1.40;;;29.95;48.08;95791.22;646778;216;42689;-76
2022/07/19 09:03:02;;;;;;;1.40;1.12;;;28.90;1.40;;;29.85;47.01;95788.42;647238;212;31943;-75
2022/07/19 09:05:43;;;;;;;1.70;0.85;;;28.90;1.40;;;29.62;45.83;95792.38;645775;216;44265;-76
2022/07/19 09:08:25;;;;;;;2.22;1.35;;;28.60;1.40;;;29.70;44.58;95797.40;645864;216;32112;-74
2022/07/19 09:13:54;;;;;;;0.88;0.75;;;29.00;1.40;;;30.30;42.97;95794.83;619789;222;31848;-76
2022/07/19 09:16:53;;;;;;;3.45;1.00;;;29.10;1.40;;;30.11;42.40;95791.88;619102;226;31849;-75
2022/07/19 09:19:34;;;;;;;1.40;0.90;;;29.00;1.40;;;30.23;41.87;95787.53;645741;216;31892;-75
2022/07/19 09:22:16;;;;;;;1.08;0.80;;;29.10;1.40;;;30.08;44.55;95788.70;646060;213;32147;-76
2022/07/19 09:24:58;;;;;;;0.80;0.70;;;29.20;1.40;;;30.67;41.54;95782.92;646604;216;32176;-75
2022/07/19 09:27:43;;;;;;;1.08;0.88;;;29.60;1.40;;;31.42;40.30;95785.61;646338;216;32130;-75
2022/07/19 09:30:31;;;;;;;1.10;0.77;;;31.20;99.90;;;32.69;40.58;95780.31;646259;216;32079;-76
2022/07/19 09:35:52;;;;;;;2.10;0.90;;;35.50;99.90;;;34.39;35.53;95771.97;646757;216;31595;-76
2022/07/19 09:38:33;;;;;;;2.40;0.93;;;34.50;99.90;;;35.20;37.47;95775.68;645105;216;32086;-75
2022/07/19 09:41:16;;;;;;;1.45;1.10;;;35.10;99.90;;;36.05;34.74;95769.95;646575;216;31648;-75
2022/07/19 09:44:00;;;;;;;1.10;1.00;;;35.80;99.90;;;36.99;34.88;95764.50;618444;226;42935;-76
2022/07/19 09:46:44;;;;;;;1.30;1.20;;;36.80;99.90;;;35.76;33.92;95769.52;645538;214;31601;-75
2022/07/19 09:49:24;;;;;;;2.47;0.90;;;34.90;99.90;;;37.09;32.31;95763.66;646157;214;32087;-75
2022/07/19 09:52:06;;;;;;;2.75;1.00;;;36.50;99.90;;;37.22;31.73;95760.91;647017;212;42163;-76
2022/07/19 09:54:47;;;;;;;0.90;0.80;;;36.00;99.90;;;36.43;30.75;95765.95;644767;216;31502;-75
2022/07/19 09:57:34;;;;;;;2.00;1.10;;;35.40;99.90;;;35.84;30.98;95762.20;646513;216;31573;-76
2022/07/19 10:00:16;;;;;;;2.30;1.05;;;34.20;99.90;;;36.10;33.38;95762.16;646720;216;31680;-75
2022/07/19 10:02:58;;;;;;;0.90;0.80;;;35.30;99.90;;;38.25;33.98;95755.97;647149;216;31760;-74
2022/07/19 10:05:40;;;;;;;1.05;0.95;;;36.90;99.90;;;39.55;31.11;95752.61;646222;212;31755;-74
2022/07/19 10:08:25;;;;;;;1.70;1.10;;;37.70;99.90;;;37.64;31.29;95756.67;645914;213;42695;-74
2022/07/19 10:11:06;;;;;;;1.35;1.00;;;36.20;99.90;;;34.57;32.11;95759.98;645457;216;31575;-75
2022/07/19 10:13:49;;;;;;;1.47;1.07;;;33.80;99.90;;;36.26;33.68;95755.14;646753;212;32109;-76
2022/07/19 10:16:42;;;;;;;1.10;1.00;;;35.30;99.90;;;34.82;31.45;95752.73;622156;226;31903;-79
2022/07/19 10:19:40;;;;;;;3.53;1.30;;;34.50;99.90;;;36.45;31.27;95746.34;646586;216;31495;-74
2022/07/19 10:22:24;;;;;;;1.40;1.10;;;35.30;99.90;;;35.38;31.00;95746.25;618874;226;31852;-75
2022/07/19 10:25:13;;;;;;;1.50;1.10;;;35.00;99.90;;;37.42;28.74;95747.94;618867;226;32494;-76
2022/07/19 10:27:58;;;;;;;1.30;1.20;;;35.90;99.90;;;35.10;30.08;95745.62;645219;216;31547;-74
2022/07/19 10:30:40;;;;;;;1.77;1.40;;;34.40;99.90;;;35.70;31.06;95735.55;647283;216;31581;-76
2022/07/19 10:35:51;;;;;;;1.40;1.30;;;35.00;99.90;;;36.12;30.25;95744.77;647428;216;32178;-75
2022/07/19 10:38:32;;;;;;;1.60;1.10;;;35.40;99.90;;;37.89;30.73;95741.84;646219;216;42210;-74
2022/07/19 10:41:14;;;;;;;3.20;1.30;;;36.10;99.90;;;38.55;32.53;95732.11;646762;216;31614;-75
2022/07/19 10:46:38;;;;;;;2.60;2.40;;;37.30;99.90;;;36.46;29.12;95738.31;646227;216;31526;-75
2022/07/19 10:49:40;;;;;;;1.90;1.47;;;34.90;99.90;;;36.73;29.52;95736.55;647641;216;31559;-76
2022/07/19 10:52:42;;;;;;;1.30;1.20;;;35.20;99.90;;;37.16;30.98;95731.41;644462;216;31649;-75
2022/07/19 10:55:25;;;;;;;1.70;1.60;;;34.70;99.90;;;35.20;32.29;95726.44;645535;216;42155;-74
2022/07/19 10:58:09;;;;;;;2.60;1.70;;;34.30;99.90;;;36.74;31.29;95729.91;645859;215;42342;-75
2022/07/19 11:00:50;;;;;;;1.50;1.33;;;34.60;99.90;;;35.93;30.68;95722.77;645626;212;31582;-75
2022/07/19 11:03:32;;;;;;;2.00;1.73;;;34.90;99.90;;;35.31;30.97;95727.27;646377;216;31598;-75
2022/07/19 11:06:28;;;;;;;1.60;1.50;;;33.80;99.90;;;36.82;32.02;95717.56;646550;216;31800;-74
2022/07/19 11:09:12;;;;;;;1.75;1.40;;;36.00;99.90;;;38.13;28.96;95712.83;646725;216;31793;-74
2022/07/19 11:11:54;;;;;;;4.65;2.20;;;35.70;99.90;;;37.42;28.96;95709.05;646147;216;31596;-75
2022/07/19 11:14:36;;;;;;;1.90;1.70;;;35.80;99.90;;;35.58;30.36;95710.95;646804;216;31707;-74
2022/07/19 11:17:17;;;;;;;2.55;1.80;;;34.30;99.90;;;38.51;29.55;95692.83;646000;216;31553;-75
2022/07/19 11:20:11;;;;;;;1.80;1.70;;;35.90;99.90;;;38.28;29.71;95695.23;647560;216;31585;-74
2022/07/19 11:22:54;;;;;;;2.30;2.10;;;36.70;99.90;;;38.56;27.68;95693.08;647102;212;31664;-77
2022/07/19 11:25:36;;;;;;;3.47;2.10;;;35.50;99.90;;;39.47;29.48;95683.30;647265;216;31584;-75
2022/07/19 11:28:21;;;;;;;1.90;1.80;;;36.30;99.90;;;37.18;29.70;95699.04;645929;216;31512;-73
2022/07/19 11:31:20;;;;;;;1.70;1.60;;;35.00;99.90;;;36.81;30.61;95693.83;646971;212;42809;-75
2022/07/19 11:35:54;;;;;;;3.08;2.62;;;36.70;99.90;;;40.67;26.37;95681.33;646564;212;42300;-75
2022/07/19 11:38:39;;;;;;;2.90;2.30;;;37.20;99.90;;;37.47;27.79;95689.52;645792;212;31634;-76
2022/07/19 11:41:22;;;;;;;2.07;1.83;;;34.80;99.90;;;37.80;28.60;95684.08;647667;216;31608;-76
2022/07/19 11:44:11;;;;;;;2.80;2.40;;;35.40;99.90;;;40.28;28.29;95667.20;646656;216;31786;-76
2022/07/19 11:46:55;;;;;;;2.40;2.20;;;36.60;99.90;;;39.31;28.22;95666.65;647984;212;31556;-75
2022/07/19 11:49:39;;;;;;;2.30;2.10;;;36.40;99.90;;;41.87;26.15;95663.60;647110;216;42178;-75
2022/07/19 11:52:21;;;;;;;4.67;2.07;;;37.60;99.90;;;43.08;26.01;95652.79;648419;212;31649;-74
2022/07/19 11:55:04;;;;;;;5.90;2.20;;;38.40;99.90;;;42.18;25.91;95657.48;646570;216;31620;-76
2022/07/19 11:57:44;;;;;;;3.53;2.70;;;37.90;99.90;;;40.06;27.50;95655.30;645544;212;31802;-74
2022/07/19 12:00:26;;;;;;;4.20;2.90;;;37.00;99.90;;;37.31;26.19;95661.93;646680;212;31686;-75
2022/07/19 12:03:08;;;;;;;2.70;2.50;;;34.80;99.90;;;40.81;26.03;95646.33;648292;212;31703;-75
2022/07/19 12:06:01;;;;;;;3.05;2.65;;;36.10;99.90;;;41.48;24.77;95640.76;645988;212;31809;-75
2022/07/19 12:08:42;;;;;;;2.70;2.37;;;37.10;99.90;;;41.71;26.65;95643.69;642579;216;31663;-76